logo
Search for airport 
image banner adimage banner adimage banner ad
image banner ad

EPJD - Romkowo

Located in , Poland

ICAO - , IATA -

Data provided by Airmate  

General information

Coordinates: N50°36'46" E19°17'50"
Elevation is 1023 feet MSL.
 
View others Airports in Silesia

Operational data

Special qualification required
Current time UTC:
Current local time:
Weather at : EPKT - Katowice - Pyrzowice ( 22 km )
METAR: EPKT 231700Z 13005KT 9000 -RA BKN039 07/07 Q1002
TAF: TAF AMD EPKT 231218Z 2312/2412 20010KT 9999 BKN033 BECMG 2312/2315 VRB02KT TEMPO 2312/2318 -RA BKN013 OVC025 PROB30 TEMPO 2315/2317 4000 RA BR BKN007 OVC014 BECMG 2317/2320 16012KT BECMG 2405/2408 26007KT TEMPO 2405/2410 4000 SHRA BKN008 BKN016CB
View NOTAMs / SUP AIP / TFR affecting this airport [VIEW]
Communications frequencies: [VIEW]

Runways:

Airport contact information

Address: Poland

Satellite view of EPJD